Time;durP1;ratioP1;P1;durP2;ratioP2;P2;SDS_P1;SDS_P2;PMS_P1;PMS_P2;Temp;Humidity;BMP_temperature;BMP_pressure;BME280_temperature;BME280_humidity;BME280_pressure;Samples;Min_cycle;Max_cycle;Signal;HPM_P1;HPM_P2
2022/05/13 00:01:58;;;;;;;1.05;0.10;;;;;;;;;;4180572;28;20119;-33
2022/05/13 00:03:59;;;;;;;0.20;0.10;;;;;;;;;;4180603;28;20095;-33
2022/05/13 00:06:01;;;;;;;1.05;0.30;;;;;;;;;;4180703;28;20045;-33
2022/05/13 00:08:02;;;;;;;0.50;0.20;;;;;;;;;;4195940;28;20397;-33
2022/05/13 00:10:06;;;;;;;0.60;0.20;;;;;;;;;;4180557;28;20099;-33
2022/05/13 00:12:07;;;;;;;0.85;0.30;;;;;;;;;;4179490;28;20053;-33
2022/05/13 00:14:09;;;;;;;0.52;0.20;;;;;;;;;;4180174;28;20488;-33
2022/05/13 00:16:10;;;;;;;0.43;0.10;;;;;;;;;;4180445;28;20098;-33
2022/05/13 00:18:11;;;;;;;0.10;0.10;;;;;;;;;;4180386;28;20049;-33
2022/05/13 00:20:12;;;;;;;0.20;0.10;;;;;;;;;;4180311;28;20491;-33
2022/05/13 00:22:15;;;;;;;0.73;0.20;;;;;;;;;;4180456;28;20404;-33
2022/05/13 00:24:16;;;;;;;0.40;0.10;;;;;;;;;;4180216;28;20166;-33
2022/05/13 00:26:17;;;;;;;0.57;0.20;;;;;;;;;;4180426;28;20167;-33
2022/05/13 00:28:18;;;;;;;0.17;0.10;;;;;;;;;;4180246;28;20049;-33
2022/05/13 00:30:19;;;;;;;0.65;0.10;;;;;;;;;;4179874;28;20064;-33
2022/05/13 00:32:20;;;;;;;1.30;0.22;;;;;;;;;;4180640;28;20099;-33
2022/05/13 00:34:21;;;;;;;1.70;0.30;;;;;;;;;;4180119;28;20053;-33
2022/05/13 00:36:22;;;;;;;0.10;0.10;;;;;;;;;;4180164;28;20045;-33
2022/05/13 00:38:23;;;;;;;0.50;0.10;;;;;;;;;;4180094;28;20140;-33
2022/05/13 00:40:25;;;;;;;0.28;0.15;;;;;;;;;;4180075;28;20056;-33
2022/05/13 00:42:26;;;;;;;0.10;0.10;;;;;;;;;;4180151;28;20045;-33
2022/05/13 00:44:26;;;;;;;0.75;0.20;;;;;;;;;;4179564;28;20531;-33
2022/05/13 00:46:28;;;;;;;0.20;0.10;;;;;;;;;;4180157;28;20049;-33
2022/05/13 00:48:29;;;;;;;0.30;0.08;;;;;;;;;;4180043;28;20063;-33
2022/05/13 00:50:31;;;;;;;0.20;0.10;;;;;;;;;;4179954;28;20044;-33
2022/05/13 00:52:33;;;;;;;0.32;0.20;;;;;;;;;;4180095;28;20542;-33
2022/05/13 00:54:34;;;;;;;0.75;0.10;;;;;;;;;;4179704;28;20099;-33
2022/05/13 00:56:35;;;;;;;1.77;0.40;;;;;;;;;;4179913;28;20480;-33
2022/05/13 00:58:38;;;;;;;1.10;0.20;;;;;;;;;;4179597;28;20057;-33
2022/05/13 01:00:40;;;;;;;0.22;0.10;;;;;;;;;;4179544;28;20056;-33
2022/05/13 01:02:44;;;;;;;0.32;0.20;;;;;;;;;;4180172;28;20123;-33
2022/05/13 01:04:45;;;;;;;0.43;0.20;;;;;;;;;;4179774;28;20094;-33
2022/05/13 01:06:49;;;;;;;1.42;0.30;;;;;;;;;;4179611;28;20049;-33
2022/05/13 01:08:50;;;;;;;0.32;0.13;;;;;;;;;;4179766;28;20095;-33
2022/05/13 01:10:53;;;;;;;0.55;0.15;;;;;;;;;;4179591;28;20118;-33
2022/05/13 01:12:56;;;;;;;0.55;0.20;;;;;;;;;;4195207;28;20464;-33
2022/05/13 01:15:28;;;;;;;0.38;0.20;;;;;;;;;;4179143;28;20381;-33
2022/05/13 01:18:31;;;;;;;0.85;0.20;;;;;;;;;;4179636;28;20485;-33
2022/05/13 01:20:01;;;;;;;0.40;0.10;;;;;;;;;;4178772;28;20040;-33
2022/05/13 01:22:13;;;;;;;0.75;0.13;;;;;;;;;;4179898;28;20079;-33
2022/05/13 01:24:14;;;;;;;0.47;0.10;;;;;;;;;;4179485;28;20049;-33
2022/05/13 01:26:16;;;;;;;0.40;0.17;;;;;;;;;;4179652;28;20500;-33
2022/05/13 01:28:22;;;;;;;0.50;0.10;;;;;;;;;;4179519;28;20757;-33
2022/05/13 01:30:28;;;;;;;0.47;0.20;;;;;;;;;;4179019;28;20094;-34
2022/05/13 01:32:29;;;;;;;0.57;0.20;;;;;;;;;;4179503;28;20052;-33
2022/05/13 01:34:29;;;;;;;0.52;0.20;;;;;;;;;;4179452;28;20060;-33
2022/05/13 01:36:31;;;;;;;0.80;0.10;;;;;;;;;;4179458;28;20052;-33
2022/05/13 01:38:35;;;;;;;0.30;0.10;;;;;;;;;;4179405;28;20053;-33
2022/05/13 01:40:36;;;;;;;0.50;0.20;;;;;;;;;;4179487;28;20500;-33
2022/05/13 01:42:37;;;;;;;1.02;0.10;;;;;;;;;;4180054;28;20098;-33
2022/05/13 01:44:38;;;;;;;0.20;0.10;;;;;;;;;;4178933;28;20246;-33
2022/05/13 01:46:39;;;;;;;1.50;0.20;;;;;;;;;;4179505;28;20122;-34
2022/05/13 01:48:40;;;;;;;0.38;0.10;;;;;;;;;;4179450;28;20173;-34
2022/05/13 01:50:42;;;;;;;0.60;0.28;;;;;;;;;;4179491;28;20048;-34
2022/05/13 01:52:43;;;;;;;0.30;0.10;;;;;;;;;;4179360;28;20049;-33
2022/05/13 01:54:44;;;;;;;0.43;0.10;;;;;;;;;;4179316;28;20133;-34
2022/05/13 01:56:44;;;;;;;0.40;0.20;;;;;;;;;;4179388;28;20080;-33
2022/05/13 01:58:46;;;;;;;0.82;0.10;;;;;;;;;;4178900;28;20099;-33
2022/05/13 02:00:48;;;;;;;1.02;0.20;;;;;;;;;;4182607;28;20559;-33
2022/05/13 02:05:09;;;;;;;0.70;0.20;;;;;;;;;;4181484;28;20049;-33
2022/05/13 02:07:10;;;;;;;0.82;0.20;;;;;;;;;;4182677;28;20061;-34
2022/05/13 02:09:11;;;;;;;1.30;0.38;;;;;;;;;;4182461;28;20049;-33
2022/05/13 02:11:12;;;;;;;0.30;0.10;;;;;;;;;;4182509;28;20059;-33
2022/05/13 02:13:14;;;;;;;0.75;0.32;;;;;;;;;;4182541;28;20052;-33
2022/05/13 02:15:15;;;;;;;1.45;0.20;;;;;;;;;;4182187;28;20392;-34
2022/05/13 02:17:16;;;;;;;0.82;0.10;;;;;;;;;;4182309;28;20480;-33
2022/05/13 02:19:17;;;;;;;0.55;0.20;;;;;;;;;;4182189;28;20095;-33
2022/05/13 02:21:19;;;;;;;0.85;0.20;;;;;;;;;;4182708;28;20049;-34
2022/05/13 02:23:20;;;;;;;0.47;0.15;;;;;;;;;;4214260;28;20472;-34
2022/05/13 02:25:21;;;;;;;0.70;0.20;;;;;;;;;;4181103;28;20091;-34
2022/05/13 02:27:22;;;;;;;0.55;0.10;;;;;;;;;;4182463;28;20060;-33
2022/05/13 02:29:23;;;;;;;0.40;0.20;;;;;;;;;;4180539;28;20049;-33
2022/05/13 02:31:24;;;;;;;0.20;0.10;;;;;;;;;;4182171;28;20059;-33
2022/05/13 02:33:25;;;;;;;0.30;0.10;;;;;;;;;;4182186;28;20523;-33
2022/05/13 02:35:27;;;;;;;0.15;0.10;;;;;;;;;;4182276;28;20052;-33
2022/05/13 02:37:28;;;;;;;0.55;0.28;;;;;;;;;;4182230;28;20534;-33
2022/05/13 02:39:30;;;;;;;0.20;0.10;;;;;;;;;;4181946;28;20111;-33
2022/05/13 02:41:31;;;;;;;0.77;0.30;;;;;;;;;;4182031;28;20114;-33
2022/05/13 02:43:32;;;;;;;0.57;0.17;;;;;;;;;;4181826;28;20056;-33
2022/05/13 02:45:33;;;;;;;1.25;0.20;;;;;;;;;;4182022;28;20059;-33
2022/05/13 02:47:34;;;;;;;0.45;0.10;;;;;;;;;;4181883;28;20474;-33
2022/05/13 02:49:35;;;;;;;0.38;0.10;;;;;;;;;;4181769;28;20136;-33
2022/05/13 02:51:35;;;;;;;0.82;0.20;;;;;;;;;;4180745;28;20136;-33
2022/05/13 02:53:36;;;;;;;1.05;0.30;;;;;;;;;;4181787;28;20094;-33
2022/05/13 02:55:37;;;;;;;1.52;0.20;;;;;;;;;;4182042;28;20098;-33
2022/05/13 02:57:38;;;;;;;0.10;0.10;;;;;;;;;;4181835;28;20098;-33
2022/05/13 02:59:39;;;;;;;1.48;0.13;;;;;;;;;;4181302;28;20111;-33
2022/05/13 03:01:40;;;;;;;1.02;0.20;;;;;;;;;;4181585;28;20064;-33
2022/05/13 03:03:43;;;;;;;1.27;0.30;;;;;;;;;;4181712;28;20106;-33
2022/05/13 03:05:44;;;;;;;0.40;0.17;;;;;;;;;;4181585;28;20079;-33
2022/05/13 03:07:45;;;;;;;1.98;0.45;;;;;;;;;;4181751;28;20432;-33
2022/05/13 03:09:46;;;;;;;0.57;0.20;;;;;;;;;;4181497;28;20048;-33
2022/05/13 03:11:47;;;;;;;0.28;0.20;;;;;;;;;;4180316;28;20087;-33
2022/05/13 03:13:49;;;;;;;0.73;0.10;;;;;;;;;;4180949;28;20079;-33
2022/05/13 03:15:50;;;;;;;0.57;0.20;;;;;;;;;;4181405;28;20048;-33
2022/05/13 03:17:51;;;;;;;1.55;0.20;;;;;;;;;;4181576;28;20480;-33
2022/05/13 03:19:52;;;;;;;0.10;0.10;;;;;;;;;;4181260;28;20095;-33
2022/05/13 03:21:52;;;;;;;0.45;0.20;;;;;;;;;;4181409;28;20045;-33
2022/05/13 03:23:54;;;;;;;1.45;0.38;;;;;;;;;;4181460;28;20090;-33
2022/05/13 03:25:56;;;;;;;0.50;0.10;;;;;;;;;;4181486;28;20049;-33
2022/05/13 03:27:57;;;;;;;0.28;0.10;;;;;;;;;;4181291;28;20053;-33
2022/05/13 03:29:57;;;;;;;0.43;0.15;;;;;;;;;;4212977;28;20056;-33
2022/05/13 03:31:58;;;;;;;0.32;0.15;;;;;;;;;;4181298;28;20106;-33
2022/05/13 03:34:00;;;;;;;1.35;0.20;;;;;;;;;;4181085;28;20390;-33
2022/05/13 03:36:01;;;;;;;0.70;0.20;;;;;;;;;;4181126;28;20542;-33
2022/05/13 03:38:02;;;;;;;1.27;0.40;;;;;;;;;;4181112;28;20110;-33
2022/05/13 03:40:03;;;;;;;0.43;0.20;;;;;;;;;;4180875;28;20044;-33
2022/05/13 03:42:04;;;;;;;1.10;0.25;;;;;;;;;;4179969;28;20079;-33
2022/05/13 03:44:05;;;;;;;0.35;0.20;;;;;;;;;;4180503;28;20480;-33
2022/05/13 03:46:06;;;;;;;0.40;0.20;;;;;;;;;;4181049;28;20045;-33
2022/05/13 03:48:07;;;;;;;0.68;0.20;;;;;;;;;;4181093;28;20099;-33
2022/05/13 03:50:09;;;;;;;0.65;0.17;;;;;;;;;;4180674;28;20106;-33
2022/05/13 03:52:10;;;;;;;0.93;0.20;;;;;;;;;;4180979;28;20055;-33
2022/05/13 03:54:12;;;;;;;0.52;0.13;;;;;;;;;;4180623;28;20060;-33
2022/05/13 03:56:13;;;;;;;1.27;0.20;;;;;;;;;;4180731;28;20053;-33
2022/05/13 03:58:14;;;;;;;0.95;0.20;;;;;;;;;;4180906;28;20056;-34
2022/05/13 04:00:16;;;;;;;0.40;0.20;;;;;;;;;;4180172;28;20045;-33
2022/05/13 04:02:17;;;;;;;1.10;0.20;;;;;;;;;;4180625;28;20057;-33
2022/05/13 04:04:21;;;;;;;0.77;0.30;;;;;;;;;;4180818;28;20088;-33
2022/05/13 04:08:57;;;;;;;0.50;0.20;;;;;;;;;;4180748;28;20569;-33
2022/05/13 04:10:58;;;;;;;0.25;0.17;;;;;;;;;;4181030;28;20391;-33
2022/05/13 04:17:38;;;;;;;1.40;0.30;;;;;;;;;;4181126;28;20049;-33
2022/05/13 04:19:39;;;;;;;1.17;0.30;;;;;;;;;;4180681;28;20099;-33
2022/05/13 04:21:40;;;;;;;0.60;0.17;;;;;;;;;;4180731;28;20110;-33
2022/05/13 04:23:43;;;;;;;0.60;0.20;;;;;;;;;;4180364;28;20103;-33
2022/05/13 04:25:44;;;;;;;0.40;0.20;;;;;;;;;;4180207;28;20405;-33
2022/05/13 04:27:46;;;;;;;0.68;0.20;;;;;;;;;;4180263;28;20079;-33
2022/05/13 04:29:46;;;;;;;1.35;0.20;;;;;;;;;;4179773;28;20080;-33
2022/05/13 04:31:47;;;;;;;0.88;0.20;;;;;;;;;;4180328;28;20084;-33
2022/05/13 04:33:49;;;;;;;0.93;0.20;;;;;;;;;;4180056;28;20091;-33
2022/05/13 04:35:50;;;;;;;1.00;0.30;;;;;;;;;;4180319;28;20382;-33
2022/05/13 04:37:51;;;;;;;0.40;0.30;;;;;;;;;;4180044;28;20075;-33
2022/05/13 04:39:53;;;;;;;0.75;0.20;;;;;;;;;;4180193;28;20057;-33
2022/05/13 04:44:15;;;;;;;1.05;0.45;;;;;;;;;;4179725;28;20573;-33
2022/05/13 04:46:17;;;;;;;1.23;0.20;;;;;;;;;;4180022;28;20102;-33
2022/05/13 04:48:19;;;;;;;0.52;0.20;;;;;;;;;;4180191;28;20398;-33
2022/05/13 04:50:21;;;;;;;0.85;0.15;;;;;;;;;;4179950;28;20049;-33
2022/05/13 04:52:23;;;;;;;0.20;0.17;;;;;;;;;;4178803;28;20053;-33
2022/05/13 04:54:24;;;;;;;1.17;0.20;;;;;;;;;;4179790;28;20056;-33
2022/05/13 04:56:25;;;;;;;0.75;0.20;;;;;;;;;;4212028;28;20079;-33
2022/05/13 04:58:27;;;;;;;0.63;0.20;;;;;;;;;;4178680;28;20044;-33
2022/05/13 05:00:28;;;;;;;0.50;0.20;;;;;;;;;;4175849;28;20359;-33
2022/05/13 05:02:30;;;;;;;0.55;0.20;;;;;;;;;;4161300;28;20111;-33
2022/05/13 05:04:31;;;;;;;0.93;0.30;;;;;;;;;;4161456;28;20045;-33
2022/05/13 05:06:32;;;;;;;0.20;0.20;;;;;;;;;;4161421;28;20149;-33
2022/05/13 05:08:33;;;;;;;0.93;0.30;;;;;;;;;;4161088;28;20096;-33
2022/05/13 05:10:34;;;;;;;0.30;0.10;;;;;;;;;;4161350;28;20389;-33
2022/05/13 05:12:36;;;;;;;0.38;0.15;;;;;;;;;;4161203;28;20096;-33
2022/05/13 05:14:37;;;;;;;0.65;0.20;;;;;;;;;;4159676;28;20441;-33
2022/05/13 05:16:38;;;;;;;0.98;0.43;;;;;;;;;;4161495;28;20107;-33
2022/05/13 05:18:39;;;;;;;0.65;0.22;;;;;;;;;;4161330;28;20145;-33
2022/05/13 05:20:41;;;;;;;1.08;0.35;;;;;;;;;;4161154;28;20154;-33
2022/05/13 05:22:46;;;;;;;1.13;0.30;;;;;;;;;;4161063;28;20046;-32
2022/05/13 05:24:47;;;;;;;0.57;0.22;;;;;;;;;;4160952;28;20049;-33
2022/05/13 05:26:48;;;;;;;0.52;0.20;;;;;;;;;;4160990;28;20076;-33
2022/05/13 05:28:51;;;;;;;0.52;0.32;;;;;;;;;;4160507;28;20053;-33
2022/05/13 05:30:52;;;;;;;0.75;0.25;;;;;;;;;;4161020;28;20111;-32
2022/05/13 05:32:53;;;;;;;0.70;0.30;;;;;;;;;;4166756;28;20389;-33
2022/05/13 05:34:54;;;;;;;1.30;0.30;;;;;;;;;;4176719;28;20091;-33
2022/05/13 05:36:55;;;;;;;1.95;0.30;;;;;;;;;;4176931;28;20403;-33
2022/05/13 05:38:56;;;;;;;1.00;0.40;;;;;;;;;;4177443;28;20091;-33
2022/05/13 05:40:58;;;;;;;0.52;0.20;;;;;;;;;;4177480;28;20044;-33
2022/05/13 05:43:03;;;;;;;2.03;0.38;;;;;;;;;;4177971;28;20102;-37
2022/05/13 05:45:05;;;;;;;1.08;0.38;;;;;;;;;;4176917;28;20118;-33
2022/05/13 05:47:06;;;;;;;0.60;0.40;;;;;;;;;;4177381;28;20045;-33
2022/05/13 05:49:06;;;;;;;0.47;0.35;;;;;;;;;;4177109;28;20519;-33
2022/05/13 05:51:07;;;;;;;1.70;0.50;;;;;;;;;;4177399;28;20522;-33
2022/05/13 05:53:08;;;;;;;0.52;0.32;;;;;;;;;;4177407;28;20057;-34
2022/05/13 05:57:29;;;;;;;1.35;0.40;;;;;;;;;;4177191;28;20049;-33
2022/05/13 05:59:30;;;;;;;1.10;0.35;;;;;;;;;;4176642;28;20580;-33
2022/05/13 06:01:31;;;;;;;0.70;0.38;;;;;;;;;;4176668;28;20061;-33
2022/05/13 06:03:32;;;;;;;1.20;0.55;;;;;;;;;;4177220;28;20053;-33
2022/05/13 06:05:33;;;;;;;1.27;0.63;;;;;;;;;;4176955;28;20104;-33
2022/05/13 06:07:34;;;;;;;2.58;0.50;;;;;;;;;;4177039;28;20053;-33
2022/05/13 06:09:36;;;;;;;1.27;0.52;;;;;;;;;;4176764;28;20180;-33
2022/05/13 06:11:37;;;;;;;2.08;0.50;;;;;;;;;;4177164;28;20060;-32
2022/05/13 06:13:38;;;;;;;1.88;0.45;;;;;;;;;;4176079;28;20622;-32
2022/05/13 06:15:39;;;;;;;2.03;0.50;;;;;;;;;;4177068;28;20053;-32
2022/05/13 06:17:44;;;;;;;1.33;0.47;;;;;;;;;;4177152;28;20107;-32
2022/05/13 06:19:45;;;;;;;1.20;0.50;;;;;;;;;;4207792;28;20117;-32
2022/05/13 06:21:46;;;;;;;2.20;0.50;;;;;;;;;;4178745;28;20195;-32
2022/05/13 06:23:47;;;;;;;2.47;0.45;;;;;;;;;;4191858;28;20040;-32
2022/05/13 06:25:48;;;;;;;1.10;0.60;;;;;;;;;;4176403;28;20098;-32
2022/05/13 06:27:50;;;;;;;0.30;0.30;;;;;;;;;;4177276;28;20049;-32
2022/05/13 06:29:53;;;;;;;0.98;0.50;;;;;;;;;;4162455;28;20049;-32
2022/05/13 06:31:54;;;;;;;1.30;0.40;;;;;;;;;;4193498;28;20057;-32
2022/05/13 06:33:55;;;;;;;1.38;0.50;;;;;;;;;;4176744;28;20144;-32
2022/05/13 06:35:56;;;;;;;1.33;0.50;;;;;;;;;;4175805;28;20075;-33
2022/05/13 06:37:57;;;;;;;2.45;0.60;;;;;;;;;;4175817;28;20094;-34
2022/05/13 06:39:58;;;;;;;1.38;0.60;;;;;;;;;;4174974;28;20135;-34
2022/05/13 06:41:59;;;;;;;1.30;0.47;;;;;;;;;;4173132;28;20084;-34
2022/05/13 06:44:02;;;;;;;2.60;0.60;;;;;;;;;;4167660;28;20210;-33
2022/05/13 06:46:03;;;;;;;1.13;0.52;;;;;;;;;;4180737;28;20512;-34
2022/05/13 06:48:04;;;;;;;1.35;0.32;;;;;;;;;;4181839;28;20057;-34
2022/05/13 06:50:07;;;;;;;1.88;0.50;;;;;;;;;;4179538;28;20053;-34
2022/05/13 06:52:13;;;;;;;0.70;0.30;;;;;;;;;;4180234;28;20045;-36
2022/05/13 06:54:14;;;;;;;1.45;0.40;;;;;;;;;;4179382;28;20056;-36
2022/05/13 06:56:15;;;;;;;0.88;0.28;;;;;;;;;;4176339;28;20061;-37
2022/05/13 06:58:16;;;;;;;0.68;0.40;;;;;;;;;;4164548;28;20439;-36
2022/05/13 07:00:18;;;;;;;3.03;0.80;;;;;;;;;;4166199;28;20053;-36
2022/05/13 07:02:21;;;;;;;2.08;0.40;;;;;;;;;;4169759;28;20444;-37
2022/05/13 07:04:23;;;;;;;1.52;0.60;;;;;;;;;;4171837;28;20056;-35
2022/05/13 07:06:24;;;;;;;1.27;0.40;;;;;;;;;;4210190;28;20584;-35
2022/05/13 07:08:24;;;;;;;2.15;0.43;;;;;;;;;;4176104;28;20064;-35
2022/05/13 07:10:25;;;;;;;3.72;0.90;;;;;;;;;;4176502;28;20063;-36
2022/05/13 07:12:27;;;;;;;2.30;0.85;;;;;;;;;;4176993;28;20652;-36
2022/05/13 07:14:28;;;;;;;1.80;0.52;;;;;;;;;;4173215;28;20053;-36
2022/05/13 07:16:29;;;;;;;3.20;0.50;;;;;;;;;;4173711;28;20449;-35
2022/05/13 07:18:30;;;;;;;3.38;0.60;;;;;;;;;;4175380;28;20511;-36
2022/05/13 07:20:31;;;;;;;1.80;0.60;;;;;;;;;;4174969;28;20450;-37
2022/05/13 07:22:34;;;;;;;2.90;0.80;;;;;;;;;;4172485;28;20060;-37
2022/05/13 07:24:34;;;;;;;2.05;0.47;;;;;;;;;;4178978;28;20082;-37
2022/05/13 07:26:35;;;;;;;1.52;0.40;;;;;;;;;;4171624;28;20476;-37
2022/05/13 07:28:38;;;;;;;1.35;0.32;;;;;;;;;;4170709;28;20064;-36
2022/05/13 07:30:39;;;;;;;2.30;0.30;;;;;;;;;;4172291;28;20048;-36
2022/05/13 07:32:40;;;;;;;1.58;0.60;;;;;;;;;;4170638;28;20516;-37
2022/05/13 07:34:41;;;;;;;0.63;0.30;;;;;;;;;;4172610;28;20448;-36
2022/05/13 07:36:42;;;;;;;1.63;0.40;;;;;;;;;;4170641;28;20056;-37
2022/05/13 07:41:16;;;;;;;1.92;0.50;;;;;;;;;;4162664;28;20053;-37
2022/05/13 07:41:16;;;;;;;0.75;0.30;;;;;;;;;;4168896;28;20049;-36
2022/05/13 07:43:17;;;;;;;1.63;0.40;;;;;;;;;;4169070;28;20045;-37
2022/05/13 07:45:18;;;;;;;0.98;0.43;;;;;;;;;;4165540;28;20164;-37
2022/05/13 07:47:19;;;;;;;0.73;0.30;;;;;;;;;;4172158;28;20041;-35
2022/05/13 07:49:20;;;;;;;1.15;0.30;;;;;;;;;;4171594;28;20142;-36
2022/05/13 07:51:25;;;;;;;1.33;0.30;;;;;;;;;;4171308;28;20157;-37
2022/05/13 07:53:27;;;;;;;1.27;0.30;;;;;;;;;;4172420;28;20049;-35
2022/05/13 07:55:28;;;;;;;1.67;0.40;;;;;;;;;;4167999;28;20102;-36
2022/05/13 07:57:28;;;;;;;2.28;0.45;;;;;;;;;;4167007;28;20106;-36
2022/05/13 07:59:32;;;;;;;2.08;0.30;;;;;;;;;;4172781;28;20080;-36
2022/05/13 08:01:33;;;;;;;1.67;0.38;;;;;;;;;;4158713;28;20045;-36
2022/05/13 08:03:34;;;;;;;1.25;0.40;;;;;;;;;;4168051;28;20045;-37
2022/05/13 08:05:40;;;;;;;3.20;0.88;;;;;;;;;;4174168;28;20404;-37
2022/05/13 08:07:41;;;;;;;1.70;0.40;;;;;;;;;;4172259;28;21413;-37
2022/05/13 08:09:43;;;;;;;3.33;0.20;;;;;;;;;;4167867;28;20063;-36
2022/05/13 08:11:44;;;;;;;1.92;0.38;;;;;;;;;;4166997;28;20049;-36
2022/05/13 08:13:46;;;;;;;1.10;0.25;;;;;;;;;;4168298;28;20065;-36
2022/05/13 08:15:47;;;;;;;1.00;0.40;;;;;;;;;;4168281;28;20049;-36
2022/05/13 08:17:48;;;;;;;2.08;0.60;;;;;;;;;;4172300;28;21596;-37
2022/05/13 08:19:49;;;;;;;0.55;0.35;;;;;;;;;;4172287;28;20055;-37
2022/05/13 08:21:50;;;;;;;1.35;0.32;;;;;;;;;;4170061;28;20045;-37
2022/05/13 08:23:51;;;;;;;4.78;0.52;;;;;;;;;;4162915;28;20137;-37
2022/05/13 08:25:52;;;;;;;1.80;0.60;;;;;;;;;;4168153;28;20049;-36
2022/05/13 08:27:53;;;;;;;0.82;0.45;;;;;;;;;;4166705;28;20105;-36
2022/05/13 08:29:54;;;;;;;1.27;0.30;;;;;;;;;;4171330;28;20478;-37
2022/05/13 08:31:55;;;;;;;1.95;0.30;;;;;;;;;;4167354;28;20154;-37
2022/05/13 08:33:56;;;;;;;1.85;0.50;;;;;;;;;;4167983;28;20047;-37
2022/05/13 08:35:59;;;;;;;3.63;0.40;;;;;;;;;;4174154;28;20051;-36
2022/05/13 08:37:59;;;;;;;1.77;0.57;;;;;;;;;;4175433;28;20061;-36
2022/05/13 08:40:01;;;;;;;3.17;0.30;;;;;;;;;;4171689;28;20049;-37
2022/05/13 08:42:21;;;;;;;1.55;0.60;;;;;;;;;;4173153;28;20059;-36
2022/05/13 08:44:22;;;;;;;2.80;0.65;;;;;;;;;;4170770;28;20117;-37
2022/05/13 08:46:35;;;;;;;1.52;0.40;;;;;;;;;;4162295;28;20084;-36
2022/05/13 08:48:51;;;;;;;1.48;0.50;;;;;;;;;;4171549;28;20056;-36
2022/05/13 08:50:56;;;;;;;1.67;0.40;;;;;;;;;;4169546;28;20056;-36
2022/05/13 08:53:09;;;;;;;1.45;0.35;;;;;;;;;;4163706;28;20401;-36
2022/05/13 08:55:12;;;;;;;10.27;0.70;;;;;;;;;;4188556;28;20041;-37
2022/05/13 08:57:12;;;;;;;1.90;0.60;;;;;;;;;;4167088;28;20056;-37
2022/05/13 08:59:13;;;;;;;0.60;0.38;;;;;;;;;;4170063;28;20136;-36
2022/05/13 09:01:24;;;;;;;1.23;0.43;;;;;;;;;;4164863;28;20183;-37
2022/05/13 09:03:39;;;;;;;2.53;0.47;;;;;;;;;;4169775;28;20053;-37
2022/05/13 09:05:42;;;;;;;1.55;0.40;;;;;;;;;;4168409;28;20327;-37
2022/05/13 09:07:44;;;;;;;0.43;0.20;;;;;;;;;;4164247;28;20197;-37
2022/05/13 09:09:50;;;;;;;1.02;0.50;;;;;;;;;;4169388;28;20497;-36
2022/05/13 09:11:54;;;;;;;1.42;0.40;;;;;;;;;;4170757;28;20049;-36
2022/05/13 09:14:08;;;;;;;1.10;0.32;;;;;;;;;;4169156;28;20540;-37
2022/05/13 09:16:09;;;;;;;0.55;0.30;;;;;;;;;;4163106;28;20049;-36
2022/05/13 09:18:28;;;;;;;0.77;0.40;;;;;;;;;;4170152;28;20056;-35
2022/05/13 09:20:35;;;;;;;1.38;0.50;;;;;;;;;;4164499;28;20079;-36
2022/05/13 09:22:36;;;;;;;0.95;0.57;;;;;;;;;;4166791;28;21859;-36
2022/05/13 09:24:37;;;;;;;1.40;0.30;;;;;;;;;;4167705;28;20174;-37
2022/05/13 09:26:38;;;;;;;0.50;0.30;;;;;;;;;;4170389;28;20063;-36
2022/05/13 09:29:03;;;;;;;1.20;0.60;;;;;;;;;;4173646;28;20049;-36
2022/05/13 09:31:17;;;;;;;0.77;0.35;;;;;;;;;;4177189;28;20090;-36
2022/05/13 09:33:30;;;;;;;0.57;0.30;;;;;;;;;;4169591;28;20464;-37
2022/05/13 09:35:35;;;;;;;0.35;0.28;;;;;;;;;;4170632;28;20052;-36
2022/05/13 09:37:41;;;;;;;0.60;0.28;;;;;;;;;;4175631;28;20041;-36
2022/05/13 09:39:44;;;;;;;0.60;0.40;;;;;;;;;;4172038;28;20049;-36
2022/05/13 09:41:46;;;;;;;0.65;0.30;;;;;;;;;;4176022;28;20408;-37
2022/05/13 09:43:52;;;;;;;0.85;0.30;;;;;;;;;;4164960;28;20086;-36
2022/05/13 09:46:01;;;;;;;1.52;0.55;;;;;;;;;;4171295;28;20210;-36
2022/05/13 09:48:05;;;;;;;0.45;0.20;;;;;;;;;;4175600;28;20124;-36
2022/05/13 09:50:27;;;;;;;1.38;0.30;;;;;;;;;;4176123;28;20048;-35
2022/05/13 09:52:29;;;;;;;1.15;0.25;;;;;;;;;;4180435;28;20346;-36
2022/05/13 09:54:33;;;;;;;0.32;0.30;;;;;;;;;;4166172;28;20061;-36
2022/05/13 09:56:39;;;;;;;0.75;0.30;;;;;;;;;;4165154;28;20048;-35
2022/05/13 09:58:50;;;;;;;1.35;0.30;;;;;;;;;;4173654;28;20049;-35
2022/05/13 10:00:52;;;;;;;0.35;0.10;;;;;;;;;;4171554;28;20118;-38
2022/05/13 10:03:08;;;;;;;0.60;0.20;;;;;;;;;;4177852;28;22632;-38
2022/05/13 10:05:20;;;;;;;2.10;0.43;;;;;;;;;;4173113;28;20102;-38
2022/05/13 10:07:23;;;;;;;0.57;0.20;;;;;;;;;;4172310;28;20041;-39
2022/05/13 10:14:25;;;;;;;0.50;0.20;;;;;;;;;;4180202;28;20256;-38
2022/05/13 10:16:47;;;;;;;0.25;0.20;;;;;;;;;;4179505;28;20047;-38
2022/05/13 10:18:57;;;;;;;0.85;0.30;;;;;;;;;;4177539;28;20048;-37
2022/05/13 10:21:14;;;;;;;0.60;0.30;;;;;;;;;;4183681;28;20056;-38
2022/05/13 10:23:24;;;;;;;1.45;0.30;;;;;;;;;;4211395;28;20093;-37
2022/05/13 10:25:27;;;;;;;0.68;0.30;;;;;;;;;;4208713;28;20044;-37
2022/05/13 10:27:40;;;;;;;1.50;0.38;;;;;;;;;;4186631;28;20099;-37
2022/05/13 10:29:43;;;;;;;0.90;0.25;;;;;;;;;;4187536;28;20045;-37
2022/05/13 10:31:46;;;;;;;1.63;0.25;;;;;;;;;;4184809;28;20040;-37
2022/05/13 10:34:07;;;;;;;0.57;0.30;;;;;;;;;;4184334;28;20049;-37
2022/05/13 10:36:08;;;;;;;;;;;;;;;;;;4181650;28;20056;-37
2022/05/13 10:38:12;;;;;;;0.30;0.10;;;;;;;;;;4184105;28;20247;-37
2022/05/13 10:40:14;;;;;;;0.40;0.20;;;;;;;;;;4187321;28;20049;-37
2022/05/13 10:42:18;;;;;;;0.65;0.30;;;;;;;;;;4183304;28;20048;-37
2022/05/13 10:44:22;;;;;;;0.50;0.20;;;;;;;;;;4186436;28;20111;-37
2022/05/13 10:46:32;;;;;;;1.75;0.28;;;;;;;;;;4186338;28;20098;-37
2022/05/13 10:48:32;;;;;;;0.68;0.43;;;;;;;;;;4186297;28;20569;-37
2022/05/13 10:50:36;;;;;;;0.52;0.10;;;;;;;;;;4183125;28;20052;-37
2022/05/13 10:52:49;;;;;;;0.40;0.20;;;;;;;;;;4184841;28;20060;-37
2022/05/13 10:54:58;;;;;;;0.40;0.20;;;;;;;;;;4184788;28;20506;-37
2022/05/13 10:57:12;;;;;;;0.52;0.20;;;;;;;;;;4185906;28;20122;-37
2022/05/13 10:59:31;;;;;;;0.30;0.20;;;;;;;;;;4179875;28;20109;-38
2022/05/13 11:01:38;;;;;;;0.82;0.22;;;;;;;;;;4165568;28;20056;-37
2022/05/13 11:03:43;;;;;;;0.45;0.15;;;;;;;;;;4177022;28;20049;-37
2022/05/13 11:06:02;;;;;;;0.20;0.20;;;;;;;;;;4170022;28;20099;-38
2022/05/13 11:08:12;;;;;;;0.45;0.20;;;;;;;;;;4173362;28;20053;-39
2022/05/13 11:10:23;;;;;;;0.43;0.20;;;;;;;;;;4167637;28;20056;-38
2022/05/13 11:12:23;;;;;;;0.10;0.10;;;;;;;;;;4173426;28;20096;-38
2022/05/13 11:14:26;;;;;;;3.55;0.22;;;;;;;;;;4178162;28;20496;-38
2022/05/13 11:16:36;;;;;;;0.30;0.10;;;;;;;;;;4175680;28;20136;-39
2022/05/13 11:18:54;;;;;;;1.40;0.20;;;;;;;;;;4173841;28;20049;-39
2022/05/13 11:21:01;;;;;;;0.68;0.30;;;;;;;;;;4179313;28;20040;-38
2022/05/13 11:23:19;;;;;;;0.43;0.17;;;;;;;;;;4175054;28;20079;-38
2022/05/13 11:27:45;;;;;;;0.98;0.30;;;;;;;;;;4177134;28;20129;-39
2022/05/13 11:29:58;;;;;;;0.32;0.20;;;;;;;;;;4174534;28;20045;-38
2022/05/13 11:32:14;;;;;;;1.15;0.20;;;;;;;;;;4185004;28;21703;-37
2022/05/13 11:34:15;;;;;;;1.42;0.55;;;;;;;;;;4177111;28;20037;-38
2022/05/13 11:36:35;;;;;;;0.13;0.13;;;;;;;;;;4155628;28;20049;-37
2022/05/13 11:38:36;;;;;;;;;;;;;;;;;;4190874;28;20052;-37
2022/05/13 11:40:39;;;;;;;0.10;0.10;;;;;;;;;;4175459;28;19975;-38
2022/05/13 11:45:16;;;;;;;1.33;0.50;;;;;;;;;;4174269;28;20052;-37
2022/05/13 11:47:17;;;;;;;2.28;0.30;;;;;;;;;;4180533;28;20110;-37
2022/05/13 11:49:23;;;;;;;1.35;0.20;;;;;;;;;;4182192;28;20049;-36
2022/05/13 11:51:27;;;;;;;0.55;0.10;;;;;;;;;;4180336;28;20109;-38
2022/05/13 11:53:48;;;;;;;0.82;0.30;;;;;;;;;;4180447;28;20455;-36
2022/05/13 11:55:49;;;;;;;0.65;0.32;;;;;;;;;;4177362;28;20048;-38
2022/05/13 11:57:52;;;;;;;0.82;0.20;;;;;;;;;;4173083;28;20037;-36
2022/05/13 12:00:12;;;;;;;0.85;0.30;;;;;;;;;;4176144;28;20102;-37
2022/05/13 12:02:15;;;;;;;0.30;0.20;;;;;;;;;;4172307;28;20059;-37
2022/05/13 12:04:17;;;;;;;0.52;0.22;;;;;;;;;;4172367;28;20293;-38
2022/05/13 12:06:18;;;;;;;0.50;0.20;;;;;;;;;;4174144;28;20189;-38
2022/05/13 12:08:21;;;;;;;0.38;0.20;;;;;;;;;;4174640;28;20548;-37
2022/05/13 12:10:29;;;;;;;0.28;0.20;;;;;;;;;;4174456;28;20052;-36
2022/05/13 12:12:49;;;;;;;0.52;0.20;;;;;;;;;;4173668;28;20115;-36
2022/05/13 12:15:03;;;;;;;0.85;0.25;;;;;;;;;;4175825;28;20049;-35
2022/05/13 12:17:07;;;;;;;0.47;0.20;;;;;;;;;;4176994;28;20090;-35
2022/05/13 12:19:09;;;;;;;0.35;0.20;;;;;;;;;;4203298;28;20047;-36
2022/05/13 12:21:28;;;;;;;1.08;0.10;;;;;;;;;;4171763;28;20488;-37
2022/05/13 12:23:31;;;;;;;2.58;0.28;;;;;;;;;;4173784;28;20048;-37
2022/05/13 12:25:32;;;;;;;0.35;0.20;;;;;;;;;;4175672;28;20053;-38
2022/05/13 12:27:34;;;;;;;0.45;0.20;;;;;;;;;;4176838;28;20440;-37
2022/05/13 12:29:41;;;;;;;0.20;0.10;;;;;;;;;;4171743;28;20527;-36
2022/05/13 12:32:06;;;;;;;0.75;0.15;;;;;;;;;;4176017;28;20060;-38
2022/05/13 12:39:05;;;;;;;0.75;0.10;;;;;;;;;;4175789;28;20460;-36
2022/05/13 12:41:16;;;;;;;0.83;0.20;;;;;;;;;;4173092;28;20056;-37
2022/05/13 12:43:22;;;;;;;1.42;0.22;;;;;;;;;;4172638;28;20044;-37
2022/05/13 12:45:41;;;;;;;0.93;0.30;;;;;;;;;;4174821;28;20106;-36
2022/05/13 12:47:56;;;;;;;0.52;0.10;;;;;;;;;;4173121;28;20570;-37
2022/05/13 12:50:21;;;;;;;0.70;0.10;;;;;;;;;;4175682;28;20094;-37
2022/05/13 12:52:33;;;;;;;0.20;0.10;;;;;;;;;;4138625;28;20447;-34